sensor_id;sensor_type;location;lat;lon;timestamp;P1;durP1;ratioP1;P2;durP2;ratioP2
16512;SDS011;8369;48.030;11.598;2023-02-01T00:02:24;2.53;;;1.80;;
16512;SDS011;8369;48.030;11.598;2023-02-01T00:04:49;4.17;;;2.90;;
16512;SDS011;8369;48.030;11.598;2023-02-01T00:07:15;2.30;;;1.90;;
16512;SDS011;8369;48.030;11.598;2023-02-01T00:09:43;4.07;;;2.47;;
16512;SDS011;8369;48.030;11.598;2023-02-01T00:12:09;3.10;;;2.00;;
16512;SDS011;8369;48.030;11.598;2023-02-01T00:14:35;2.47;;;2.00;;
16512;SDS011;8369;48.030;11.598;2023-02-01T00:17:06;3.50;;;2.23;;
16512;SDS011;8369;48.030;11.598;2023-02-01T00:19:32;2.57;;;2.10;;
16512;SDS011;8369;48.030;11.598;2023-02-01T00:21:59;4.43;;;1.97;;
16512;SDS011;8369;48.030;11.598;2023-02-01T00:24:25;3.70;;;2.30;;
16512;SDS011;8369;48.030;11.598;2023-02-01T00:26:51;2.67;;;2.00;;
16512;SDS011;8369;48.030;11.598;2023-02-01T00:29:19;2.53;;;2.10;;
16512;SDS011;8369;48.030;11.598;2023-02-01T00:31:45;2.60;;;2.00;;
16512;SDS011;8369;48.030;11.598;2023-02-01T00:34:12;2.43;;;1.80;;
16512;SDS011;8369;48.030;11.598;2023-02-01T00:36:39;3.17;;;1.93;;
16512;SDS011;8369;48.030;11.598;2023-02-01T00:39:05;3.13;;;2.10;;
16512;SDS011;8369;48.030;11.598;2023-02-01T00:41:31;5.30;;;2.30;;
16512;SDS011;8369;48.030;11.598;2023-02-01T00:43:57;3.80;;;2.20;;
16512;SDS011;8369;48.030;11.598;2023-02-01T00:46:22;3.73;;;2.23;;
16512;SDS011;8369;48.030;11.598;2023-02-01T00:48:49;4.20;;;2.37;;
16512;SDS011;8369;48.030;11.598;2023-02-01T00:51:17;3.67;;;2.30;;
16512;SDS011;8369;48.030;11.598;2023-02-01T00:53:44;2.17;;;1.87;;
16512;SDS011;8369;48.030;11.598;2023-02-01T00:56:11;3.10;;;1.90;;
16512;SDS011;8369;48.030;11.598;2023-02-01T00:58:37;2.67;;;2.10;;
16512;SDS011;8369;48.030;11.598;2023-02-01T01:03:39;3.47;;;1.97;;
16512;SDS011;8369;48.030;11.598;2023-02-01T01:06:08;4.07;;;2.13;;
16512;SDS011;8369;48.030;11.598;2023-02-01T01:08:39;3.97;;;2.00;;
16512;SDS011;8369;48.030;11.598;2023-02-01T01:11:09;3.07;;;2.40;;
16512;SDS011;8369;48.030;11.598;2023-02-01T01:13:39;3.43;;;2.53;;
16512;SDS011;8369;48.030;11.598;2023-02-01T01:16:06;4.53;;;2.57;;
16512;SDS011;8369;48.030;11.598;2023-02-01T01:18:33;3.50;;;2.43;;
16512;SDS011;8369;48.030;11.598;2023-02-01T01:20:59;4.10;;;2.40;;
16512;SDS011;8369;48.030;11.598;2023-02-01T01:23:26;3.47;;;2.30;;
16512;SDS011;8369;48.030;11.598;2023-02-01T01:25:52;4.63;;;2.80;;
16512;SDS011;8369;48.030;11.598;2023-02-01T01:28:18;3.30;;;2.53;;
16512;SDS011;8369;48.030;11.598;2023-02-01T01:30:43;3.03;;;2.27;;
16512;SDS011;8369;48.030;11.598;2023-02-01T01:33:09;2.87;;;2.50;;
16512;SDS011;8369;48.030;11.598;2023-02-01T01:35:35;3.30;;;2.63;;
16512;SDS011;8369;48.030;11.598;2023-02-01T01:38:01;5.10;;;2.87;;
16512;SDS011;8369;48.030;11.598;2023-02-01T01:40:27;4.43;;;2.70;;
16512;SDS011;8369;48.030;11.598;2023-02-01T01:42:55;4.83;;;2.83;;
16512;SDS011;8369;48.030;11.598;2023-02-01T01:45:25;6.27;;;2.93;;
16512;SDS011;8369;48.030;11.598;2023-02-01T01:48:03;5.40;;;3.07;;
16512;SDS011;8369;48.030;11.598;2023-02-01T01:50:35;3.40;;;2.60;;
16512;SDS011;8369;48.030;11.598;2023-02-01T01:53:09;2.83;;;2.53;;
16512;SDS011;8369;48.030;11.598;2023-02-01T01:55:39;5.23;;;3.00;;
16512;SDS011;8369;48.030;11.598;2023-02-01T01:58:10;5.03;;;2.53;;
16512;SDS011;8369;48.030;11.598;2023-02-01T02:00:39;5.17;;;3.30;;
16512;SDS011;8369;48.030;11.598;2023-02-01T02:03:11;3.33;;;2.63;;
16512;SDS011;8369;48.030;11.598;2023-02-01T02:05:49;4.80;;;2.83;;
16512;SDS011;8369;48.030;11.598;2023-02-01T02:08:18;4.43;;;2.70;;
16512;SDS011;8369;48.030;11.598;2023-02-01T02:10:45;6.87;;;3.47;;
16512;SDS011;8369;48.030;11.598;2023-02-01T02:13:26;5.03;;;2.93;;
16512;SDS011;8369;48.030;11.598;2023-02-01T02:16:04;2.83;;;2.20;;
16512;SDS011;8369;48.030;11.598;2023-02-01T02:18:38;3.80;;;2.57;;
16512;SDS011;8369;48.030;11.598;2023-02-01T02:21:23;4.37;;;3.13;;
16512;SDS011;8369;48.030;11.598;2023-02-01T02:27:10;3.50;;;2.63;;
16512;SDS011;8369;48.030;11.598;2023-02-01T02:35:46;3.53;;;2.80;;
16512;SDS011;8369;48.030;11.598;2023-02-01T02:38:30;3.63;;;2.80;;
16512;SDS011;8369;48.030;11.598;2023-02-01T02:43:43;4.10;;;3.00;;
16512;SDS011;8369;48.030;11.598;2023-02-01T02:46:36;6.03;;;2.80;;
16512;SDS011;8369;48.030;11.598;2023-02-01T02:49:24;6.27;;;3.10;;
16512;SDS011;8369;48.030;11.598;2023-02-01T02:52:33;3.70;;;2.73;;
16512;SDS011;8369;48.030;11.598;2023-02-01T02:55:24;3.43;;;2.47;;
16512;SDS011;8369;48.030;11.598;2023-02-01T02:57:52;4.30;;;2.90;;
16512;SDS011;8369;48.030;11.598;2023-02-01T03:00:38;4.73;;;2.73;;
16512;SDS011;8369;48.030;11.598;2023-02-01T03:03:24;3.90;;;3.07;;
16512;SDS011;8369;48.030;11.598;2023-02-01T03:06:12;4.57;;;2.83;;
16512;SDS011;8369;48.030;11.598;2023-02-01T03:08:43;4.57;;;2.73;;
16512;SDS011;8369;48.030;11.598;2023-02-01T03:11:11;5.23;;;2.60;;
16512;SDS011;8369;48.030;11.598;2023-02-01T03:13:54;3.77;;;2.63;;
16512;SDS011;8369;48.030;11.598;2023-02-01T03:16:26;4.37;;;2.93;;
16512;SDS011;8369;48.030;11.598;2023-02-01T03:21:58;5.23;;;2.63;;
16512;SDS011;8369;48.030;11.598;2023-02-01T03:27:10;4.50;;;3.00;;
16512;SDS011;8369;48.030;11.598;2023-02-01T03:32:34;6.53;;;3.10;;
16512;SDS011;8369;48.030;11.598;2023-02-01T03:35:25;4.80;;;2.63;;
16512;SDS011;8369;48.030;11.598;2023-02-01T03:38:23;4.80;;;3.03;;
16512;SDS011;8369;48.030;11.598;2023-02-01T03:43:58;5.23;;;2.97;;
16512;SDS011;8369;48.030;11.598;2023-02-01T03:46:59;4.57;;;3.03;;
16512;SDS011;8369;48.030;11.598;2023-02-01T03:49:43;3.83;;;2.93;;
16512;SDS011;8369;48.030;11.598;2023-02-01T03:52:18;5.63;;;2.87;;
16512;SDS011;8369;48.030;11.598;2023-02-01T03:54:48;5.43;;;2.97;;
16512;SDS011;8369;48.030;11.598;2023-02-01T03:57:17;3.90;;;2.93;;
16512;SDS011;8369;48.030;11.598;2023-02-01T03:59:47;4.30;;;2.90;;
16512;SDS011;8369;48.030;11.598;2023-02-01T04:02:15;5.37;;;3.47;;
16512;SDS011;8369;48.030;11.598;2023-02-01T04:04:42;4.43;;;2.90;;
16512;SDS011;8369;48.030;11.598;2023-02-01T04:07:07;4.13;;;3.00;;
16512;SDS011;8369;48.030;11.598;2023-02-01T04:09:33;4.53;;;3.43;;
16512;SDS011;8369;48.030;11.598;2023-02-01T04:11:59;4.90;;;3.10;;
16512;SDS011;8369;48.030;11.598;2023-02-01T04:14:24;5.00;;;3.07;;
16512;SDS011;8369;48.030;11.598;2023-02-01T04:16:50;4.30;;;3.00;;
16512;SDS011;8369;48.030;11.598;2023-02-01T04:19:16;3.53;;;2.70;;
16512;SDS011;8369;48.030;11.598;2023-02-01T04:21:42;4.40;;;2.83;;
16512;SDS011;8369;48.030;11.598;2023-02-01T04:24:07;4.63;;;3.00;;
16512;SDS011;8369;48.030;11.598;2023-02-01T04:26:33;3.03;;;2.60;;
16512;SDS011;8369;48.030;11.598;2023-02-01T04:28:59;6.00;;;2.97;;
16512;SDS011;8369;48.030;11.598;2023-02-01T04:31:25;3.90;;;2.60;;
16512;SDS011;8369;48.030;11.598;2023-02-01T04:33:52;4.93;;;2.90;;
16512;SDS011;8369;48.030;11.598;2023-02-01T04:36:19;3.60;;;2.60;;
16512;SDS011;8369;48.030;11.598;2023-02-01T04:38:47;3.80;;;2.70;;
16512;SDS011;8369;48.030;11.598;2023-02-01T04:41:13;7.30;;;2.70;;
16512;SDS011;8369;48.030;11.598;2023-02-01T04:43:40;5.93;;;3.40;;
16512;SDS011;8369;48.030;11.598;2023-02-01T04:46:06;4.47;;;2.80;;
16512;SDS011;8369;48.030;11.598;2023-02-01T04:48:31;4.53;;;3.17;;
16512;SDS011;8369;48.030;11.598;2023-02-01T04:50:58;5.70;;;2.83;;
16512;SDS011;8369;48.030;11.598;2023-02-01T04:53:24;4.53;;;3.07;;
16512;SDS011;8369;48.030;11.598;2023-02-01T04:55:50;5.30;;;3.23;;
16512;SDS011;8369;48.030;11.598;2023-02-01T04:58:16;3.83;;;3.03;;
16512;SDS011;8369;48.030;11.598;2023-02-01T05:00:41;6.23;;;3.07;;
16512;SDS011;8369;48.030;11.598;2023-02-01T05:03:07;3.27;;;2.57;;
16512;SDS011;8369;48.030;11.598;2023-02-01T05:05:32;3.40;;;2.60;;
16512;SDS011;8369;48.030;11.598;2023-02-01T05:07:58;3.40;;;2.80;;
16512;SDS011;8369;48.030;11.598;2023-02-01T05:10:24;5.97;;;3.33;;
16512;SDS011;8369;48.030;11.598;2023-02-01T05:12:49;7.60;;;3.10;;
16512;SDS011;8369;48.030;11.598;2023-02-01T05:15:33;4.50;;;3.00;;
16512;SDS011;8369;48.030;11.598;2023-02-01T05:17:59;6.30;;;3.10;;
16512;SDS011;8369;48.030;11.598;2023-02-01T05:20:25;4.83;;;3.13;;
16512;SDS011;8369;48.030;11.598;2023-02-01T05:22:50;5.80;;;3.90;;
16512;SDS011;8369;48.030;11.598;2023-02-01T05:25:16;4.23;;;3.10;;
16512;SDS011;8369;48.030;11.598;2023-02-01T05:27:42;4.53;;;3.07;;
16512;SDS011;8369;48.030;11.598;2023-02-01T05:30:08;5.27;;;3.33;;
16512;SDS011;8369;48.030;11.598;2023-02-01T05:32:34;7.90;;;3.20;;
16512;SDS011;8369;48.030;11.598;2023-02-01T05:35:00;4.23;;;3.50;;
16512;SDS011;8369;48.030;11.598;2023-02-01T05:37:25;4.67;;;3.27;;
16512;SDS011;8369;48.030;11.598;2023-02-01T05:39:51;6.43;;;3.33;;
16512;SDS011;8369;48.030;11.598;2023-02-01T05:42:17;5.10;;;3.23;;
16512;SDS011;8369;48.030;11.598;2023-02-01T05:44:43;5.10;;;3.27;;
16512;SDS011;8369;48.030;11.598;2023-02-01T05:47:09;5.53;;;3.30;;
16512;SDS011;8369;48.030;11.598;2023-02-01T05:49:34;5.00;;;3.37;;
16512;SDS011;8369;48.030;11.598;2023-02-01T05:52:01;7.20;;;3.63;;
16512;SDS011;8369;48.030;11.598;2023-02-01T05:54:27;7.23;;;3.90;;
16512;SDS011;8369;48.030;11.598;2023-02-01T05:56:52;6.10;;;3.63;;
16512;SDS011;8369;48.030;11.598;2023-02-01T05:59:18;4.87;;;3.63;;
16512;SDS011;8369;48.030;11.598;2023-02-01T06:01:44;4.60;;;3.27;;
16512;SDS011;8369;48.030;11.598;2023-02-01T06:04:09;4.63;;;3.40;;
16512;SDS011;8369;48.030;11.598;2023-02-01T06:06:35;4.57;;;3.47;;
16512;SDS011;8369;48.030;11.598;2023-02-01T06:09:02;6.10;;;3.50;;
16512;SDS011;8369;48.030;11.598;2023-02-01T06:11:28;4.80;;;3.20;;
16512;SDS011;8369;48.030;11.598;2023-02-01T06:13:54;5.97;;;3.77;;
16512;SDS011;8369;48.030;11.598;2023-02-01T06:16:20;5.43;;;3.60;;
16512;SDS011;8369;48.030;11.598;2023-02-01T06:18:47;5.27;;;3.40;;
16512;SDS011;8369;48.030;11.598;2023-02-01T06:21:13;7.90;;;3.47;;
16512;SDS011;8369;48.030;11.598;2023-02-01T06:23:49;4.57;;;3.83;;
16512;SDS011;8369;48.030;11.598;2023-02-01T06:26:19;5.93;;;4.13;;
16512;SDS011;8369;48.030;11.598;2023-02-01T06:28:45;6.10;;;3.93;;
16512;SDS011;8369;48.030;11.598;2023-02-01T06:31:11;6.90;;;3.87;;
16512;SDS011;8369;48.030;11.598;2023-02-01T06:33:36;6.57;;;4.00;;
16512;SDS011;8369;48.030;11.598;2023-02-01T06:36:03;6.23;;;3.83;;
16512;SDS011;8369;48.030;11.598;2023-02-01T06:38:31;5.97;;;4.07;;
16512;SDS011;8369;48.030;11.598;2023-02-01T06:41:00;6.23;;;3.90;;
16512;SDS011;8369;48.030;11.598;2023-02-01T06:43:26;5.73;;;3.57;;
16512;SDS011;8369;48.030;11.598;2023-02-01T06:45:52;5.33;;;3.90;;
16512;SDS011;8369;48.030;11.598;2023-02-01T06:48:18;6.43;;;3.53;;
16512;SDS011;8369;48.030;11.598;2023-02-01T06:50:44;5.17;;;3.53;;
16512;SDS011;8369;48.030;11.598;2023-02-01T06:53:10;6.83;;;3.50;;
16512;SDS011;8369;48.030;11.598;2023-02-01T06:55:36;6.47;;;3.90;;
16512;SDS011;8369;48.030;11.598;2023-02-01T06:58:01;5.43;;;3.20;;
16512;SDS011;8369;48.030;11.598;2023-02-01T07:00:28;6.23;;;3.63;;
16512;SDS011;8369;48.030;11.598;2023-02-01T07:02:54;6.73;;;3.57;;
16512;SDS011;8369;48.030;11.598;2023-02-01T07:05:20;5.87;;;3.43;;
16512;SDS011;8369;48.030;11.598;2023-02-01T07:07:46;6.00;;;3.60;;
16512;SDS011;8369;48.030;11.598;2023-02-01T07:10:12;5.90;;;3.23;;
16512;SDS011;8369;48.030;11.598;2023-02-01T07:12:37;4.77;;;3.20;;
16512;SDS011;8369;48.030;11.598;2023-02-01T07:15:04;4.73;;;3.07;;
16512;SDS011;8369;48.030;11.598;2023-02-01T07:17:30;6.30;;;3.37;;
16512;SDS011;8369;48.030;11.598;2023-02-01T07:19:56;4.77;;;3.00;;
16512;SDS011;8369;48.030;11.598;2023-02-01T07:22:23;5.63;;;3.00;;
16512;SDS011;8369;48.030;11.598;2023-02-01T07:24:49;3.77;;;2.93;;
16512;SDS011;8369;48.030;11.598;2023-02-01T07:27:15;4.43;;;2.93;;
16512;SDS011;8369;48.030;11.598;2023-02-01T07:29:40;6.60;;;3.13;;
16512;SDS011;8369;48.030;11.598;2023-02-01T07:32:06;5.30;;;3.53;;
16512;SDS011;8369;48.030;11.598;2023-02-01T07:34:31;4.07;;;3.20;;
16512;SDS011;8369;48.030;11.598;2023-02-01T07:36:58;4.83;;;2.87;;
16512;SDS011;8369;48.030;11.598;2023-02-01T07:39:23;3.03;;;2.53;;
16512;SDS011;8369;48.030;11.598;2023-02-01T07:41:49;3.97;;;2.50;;
16512;SDS011;8369;48.030;11.598;2023-02-01T07:44:15;3.30;;;2.40;;
16512;SDS011;8369;48.030;11.598;2023-02-01T07:46:42;4.07;;;2.60;;
16512;SDS011;8369;48.030;11.598;2023-02-01T07:49:08;6.07;;;2.50;;
16512;SDS011;8369;48.030;11.598;2023-02-01T07:51:34;3.13;;;2.53;;
16512;SDS011;8369;48.030;11.598;2023-02-01T07:53:59;3.30;;;2.63;;
16512;SDS011;8369;48.030;11.598;2023-02-01T07:56:25;4.37;;;2.80;;
16512;SDS011;8369;48.030;11.598;2023-02-01T07:58:51;5.10;;;3.33;;
16512;SDS011;8369;48.030;11.598;2023-02-01T08:01:24;3.77;;;2.40;;
16512;SDS011;8369;48.030;11.598;2023-02-01T08:03:52;3.93;;;2.47;;
16512;SDS011;8369;48.030;11.598;2023-02-01T08:06:24;2.80;;;2.03;;
16512;SDS011;8369;48.030;11.598;2023-02-01T08:08:50;2.87;;;2.57;;
16512;SDS011;8369;48.030;11.598;2023-02-01T08:11:16;2.80;;;2.43;;
16512;SDS011;8369;48.030;11.598;2023-02-01T08:13:42;3.87;;;2.80;;
16512;SDS011;8369;48.030;11.598;2023-02-01T08:16:09;3.77;;;2.40;;
16512;SDS011;8369;48.030;11.598;2023-02-01T08:18:36;3.57;;;2.40;;
16512;SDS011;8369;48.030;11.598;2023-02-01T08:21:07;4.50;;;2.63;;
16512;SDS011;8369;48.030;11.598;2023-02-01T08:23:38;4.27;;;2.67;;
16512;SDS011;8369;48.030;11.598;2023-02-01T08:26:06;6.07;;;2.73;;
16512;SDS011;8369;48.030;11.598;2023-02-01T08:28:53;3.57;;;2.57;;
16512;SDS011;8369;48.030;11.598;2023-02-01T08:31:21;3.50;;;2.70;;
16512;SDS011;8369;48.030;11.598;2023-02-01T08:33:50;3.00;;;2.70;;
16512;SDS011;8369;48.030;11.598;2023-02-01T08:36:18;10.83;;;3.10;;
16512;SDS011;8369;48.030;11.598;2023-02-01T08:38:43;3.03;;;2.40;;
16512;SDS011;8369;48.030;11.598;2023-02-01T08:41:13;3.00;;;2.17;;
16512;SDS011;8369;48.030;11.598;2023-02-01T08:43:41;3.57;;;2.50;;
16512;SDS011;8369;48.030;11.598;2023-02-01T08:46:07;4.27;;;2.27;;
16512;SDS011;8369;48.030;11.598;2023-02-01T08:48:34;3.40;;;2.67;;
16512;SDS011;8369;48.030;11.598;2023-02-01T08:51:03;3.20;;;2.23;;
16512;SDS011;8369;48.030;11.598;2023-02-01T08:53:30;2.80;;;2.13;;
16512;SDS011;8369;48.030;11.598;2023-02-01T08:55:56;4.50;;;2.73;;
16512;SDS011;8369;48.030;11.598;2023-02-01T08:58:21;3.63;;;2.57;;
16512;SDS011;8369;48.030;11.598;2023-02-01T09:00:47;3.40;;;2.67;;
16512;SDS011;8369;48.030;11.598;2023-02-01T09:03:14;3.13;;;2.40;;
16512;SDS011;8369;48.030;11.598;2023-02-01T09:05:40;3.57;;;2.60;;
16512;SDS011;8369;48.030;11.598;2023-02-01T09:08:06;4.37;;;2.70;;
16512;SDS011;8369;48.030;11.598;2023-02-01T09:10:32;3.37;;;2.20;;
16512;SDS011;8369;48.030;11.598;2023-02-01T09:12:59;4.17;;;2.23;;
16512;SDS011;8369;48.030;11.598;2023-02-01T09:15:25;3.27;;;2.53;;
16512;SDS011;8369;48.030;11.598;2023-02-01T09:17:50;3.27;;;2.50;;
16512;SDS011;8369;48.030;11.598;2023-02-01T09:20:16;2.77;;;2.23;;
16512;SDS011;8369;48.030;11.598;2023-02-01T09:22:43;2.37;;;2.00;;
16512;SDS011;8369;48.030;11.598;2023-02-01T09:25:09;2.50;;;2.30;;
16512;SDS011;8369;48.030;11.598;2023-02-01T09:27:35;4.07;;;2.40;;
16512;SDS011;8369;48.030;11.598;2023-02-01T09:30:01;6.63;;;3.10;;
16512;SDS011;8369;48.030;11.598;2023-02-01T09:32:28;2.53;;;2.17;;
16512;SDS011;8369;48.030;11.598;2023-02-01T09:34:53;3.47;;;2.80;;
16512;SDS011;8369;48.030;11.598;2023-02-01T09:37:19;4.37;;;2.50;;
16512;SDS011;8369;48.030;11.598;2023-02-01T09:39:45;2.77;;;2.20;;
16512;SDS011;8369;48.030;11.598;2023-02-01T09:45:14;3.03;;;2.20;;
16512;SDS011;8369;48.030;11.598;2023-02-01T09:48:29;3.60;;;2.00;;
16512;SDS011;8369;48.030;11.598;2023-02-01T09:50:50;3.93;;;2.50;;
16512;SDS011;8369;48.030;11.598;2023-02-01T09:58:41;3.77;;;2.40;;
16512;SDS011;8369;48.030;11.598;2023-02-01T10:01:12;2.90;;;2.00;;
16512;SDS011;8369;48.030;11.598;2023-02-01T10:03:43;2.53;;;2.10;;
16512;SDS011;8369;48.030;11.598;2023-02-01T10:06:13;2.77;;;2.13;;
16512;SDS011;8369;48.030;11.598;2023-02-01T10:12:01;2.90;;;2.10;;
16512;SDS011;8369;48.030;11.598;2023-02-01T10:14:46;4.67;;;2.40;;
16512;SDS011;8369;48.030;11.598;2023-02-01T10:20:01;3.30;;;2.23;;
16512;SDS011;8369;48.030;11.598;2023-02-01T10:23:00;3.47;;;2.30;;
16512;SDS011;8369;48.030;11.598;2023-02-01T10:28:34;2.90;;;2.03;;
16512;SDS011;8369;48.030;11.598;2023-02-01T10:31:02;2.47;;;2.20;;
16512;SDS011;8369;48.030;11.598;2023-02-01T10:33:32;4.80;;;2.07;;
16512;SDS011;8369;48.030;11.598;2023-02-01T10:36:23;2.40;;;1.63;;
16512;SDS011;8369;48.030;11.598;2023-02-01T10:38:52;2.10;;;1.73;;
16512;SDS011;8369;48.030;11.598;2023-02-01T10:41:22;3.63;;;2.07;;
16512;SDS011;8369;48.030;11.598;2023-02-01T10:43:53;3.20;;;2.17;;
16512;SDS011;8369;48.030;11.598;2023-02-01T10:46:25;2.27;;;1.80;;
16512;SDS011;8369;48.030;11.598;2023-02-01T10:48:52;2.80;;;2.00;;
16512;SDS011;8369;48.030;11.598;2023-02-01T10:51:27;2.53;;;2.20;;
16512;SDS011;8369;48.030;11.598;2023-02-01T10:54:11;2.97;;;2.30;;
16512;SDS011;8369;48.030;11.598;2023-02-01T10:56:43;2.60;;;2.03;;
16512;SDS011;8369;48.030;11.598;2023-02-01T10:59:17;2.80;;;2.33;;
16512;SDS011;8369;48.030;11.598;2023-02-01T11:01:48;7.60;;;2.70;;
16512;SDS011;8369;48.030;11.598;2023-02-01T11:04:15;2.57;;;2.00;;
16512;SDS011;8369;48.030;11.598;2023-02-01T11:06:46;3.30;;;2.10;;
16512;SDS011;8369;48.030;11.598;2023-02-01T11:09:25;4.57;;;2.40;;
16512;SDS011;8369;48.030;11.598;2023-02-01T11:14:17;3.47;;;2.50;;
16512;SDS011;8369;48.030;11.598;2023-02-01T11:16:49;4.77;;;2.40;;
16512;SDS011;8369;48.030;11.598;2023-02-01T11:19:17;2.97;;;1.93;;
16512;SDS011;8369;48.030;11.598;2023-02-01T11:21:43;4.10;;;2.50;;
16512;SDS011;8369;48.030;11.598;2023-02-01T11:24:26;3.00;;;2.07;;
16512;SDS011;8369;48.030;11.598;2023-02-01T11:27:03;3.60;;;2.00;;
16512;SDS011;8369;48.030;11.598;2023-02-01T11:29:38;3.27;;;2.23;;
16512;SDS011;8369;48.030;11.598;2023-02-01T11:32:07;3.53;;;2.23;;
16512;SDS011;8369;48.030;11.598;2023-02-01T11:34:42;3.80;;;2.90;;
16512;SDS011;8369;48.030;11.598;2023-02-01T11:37:16;2.37;;;2.00;;
16512;SDS011;8369;48.030;11.598;2023-02-01T11:39:53;2.50;;;2.20;;
16512;SDS011;8369;48.030;11.598;2023-02-01T11:42:23;5.53;;;2.30;;
16512;SDS011;8369;48.030;11.598;2023-02-01T11:44:50;3.57;;;2.67;;
16512;SDS011;8369;48.030;11.598;2023-02-01T11:47:28;3.97;;;2.10;;
16512;SDS011;8369;48.030;11.598;2023-02-01T11:50:00;3.20;;;2.33;;
16512;SDS011;8369;48.030;11.598;2023-02-01T12:07:05;3.07;;;2.40;;
16512;SDS011;8369;48.030;11.598;2023-02-01T12:15:58;3.20;;;2.37;;
16512;SDS011;8369;48.030;11.598;2023-02-01T12:21:24;3.30;;;2.33;;
16512;SDS011;8369;48.030;11.598;2023-02-01T12:29:35;5.37;;;2.37;;
16512;SDS011;8369;48.030;11.598;2023-02-01T12:35:22;5.03;;;2.50;;
16512;SDS011;8369;48.030;11.598;2023-02-01T12:43:57;3.93;;;2.53;;
16512;SDS011;8369;48.030;11.598;2023-02-01T12:46:48;4.03;;;2.30;;
16512;SDS011;8369;48.030;11.598;2023-02-01T12:49:27;4.00;;;2.20;;
16512;SDS011;8369;48.030;11.598;2023-02-01T12:51:55;3.90;;;2.30;;
16512;SDS011;8369;48.030;11.598;2023-02-01T12:57:12;3.30;;;2.00;;
16512;SDS011;8369;48.030;11.598;2023-02-01T13:00:27;10.23;;;2.73;;
16512;SDS011;8369;48.030;11.598;2023-02-01T13:08:51;4.73;;;2.40;;
16512;SDS011;8369;48.030;11.598;2023-02-01T13:11:42;3.00;;;2.30;;
16512;SDS011;8369;48.030;11.598;2023-02-01T13:14:32;3.20;;;2.50;;
16512;SDS011;8369;48.030;11.598;2023-02-01T13:17:23;3.03;;;2.13;;
16512;SDS011;8369;48.030;11.598;2023-02-01T13:22:25;3.93;;;2.80;;
16512;SDS011;8369;48.030;11.598;2023-02-01T13:24:57;2.97;;;2.30;;
16512;SDS011;8369;48.030;11.598;2023-02-01T13:27:29;5.50;;;2.47;;
16512;SDS011;8369;48.030;11.598;2023-02-01T13:38:05;3.23;;;2.37;;
16512;SDS011;8369;48.030;11.598;2023-02-01T13:43:48;4.97;;;2.77;;
16512;SDS011;8369;48.030;11.598;2023-02-01T13:46:16;2.53;;;2.00;;
16512;SDS011;8369;48.030;11.598;2023-02-01T13:51:17;4.73;;;2.13;;
16512;SDS011;8369;48.030;11.598;2023-02-01T13:53:57;3.77;;;2.40;;
16512;SDS011;8369;48.030;11.598;2023-02-01T13:56:22;3.20;;;2.50;;
16512;SDS011;8369;48.030;11.598;2023-02-01T13:58:49;4.10;;;2.80;;
16512;SDS011;8369;48.030;11.598;2023-02-01T14:06:32;3.77;;;2.50;;
16512;SDS011;8369;48.030;11.598;2023-02-01T14:11:36;3.03;;;2.43;;
16512;SDS011;8369;48.030;11.598;2023-02-01T14:16:40;2.70;;;2.07;;
16512;SDS011;8369;48.030;11.598;2023-02-01T14:21:50;4.53;;;2.33;;
16512;SDS011;8369;48.030;11.598;2023-02-01T14:24:24;7.07;;;2.60;;
16512;SDS011;8369;48.030;11.598;2023-02-01T14:26:58;2.80;;;2.10;;
16512;SDS011;8369;48.030;11.598;2023-02-01T14:29:54;2.23;;;2.00;;
16512;SDS011;8369;48.030;11.598;2023-02-01T14:32:26;2.90;;;2.27;;
16512;SDS011;8369;48.030;11.598;2023-02-01T14:34:59;5.17;;;2.70;;
16512;SDS011;8369;48.030;11.598;2023-02-01T14:37:28;4.67;;;2.77;;
16512;SDS011;8369;48.030;11.598;2023-02-01T14:42:44;2.90;;;2.20;;
16512;SDS011;8369;48.030;11.598;2023-02-01T14:47:45;3.20;;;2.00;;
16512;SDS011;8369;48.030;11.598;2023-02-01T14:50:24;2.87;;;1.90;;
16512;SDS011;8369;48.030;11.598;2023-02-01T14:58:09;3.60;;;1.87;;
16512;SDS011;8369;48.030;11.598;2023-02-01T15:00:57;3.60;;;1.93;;
16512;SDS011;8369;48.030;11.598;2023-02-01T15:06:21;5.60;;;2.60;;
16512;SDS011;8369;48.030;11.598;2023-02-01T15:08:54;3.93;;;2.30;;
16512;SDS011;8369;48.030;11.598;2023-02-01T15:11:23;3.77;;;2.80;;
16512;SDS011;8369;48.030;11.598;2023-02-01T15:13:49;6.37;;;3.63;;
16512;SDS011;8369;48.030;11.598;2023-02-01T15:16:18;7.40;;;2.73;;
16512;SDS011;8369;48.030;11.598;2023-02-01T15:18:44;4.90;;;2.40;;
16512;SDS011;8369;48.030;11.598;2023-02-01T15:21:23;4.57;;;2.70;;
16512;SDS011;8369;48.030;11.598;2023-02-01T15:23:50;5.77;;;3.30;;
16512;SDS011;8369;48.030;11.598;2023-02-01T15:26:35;4.63;;;2.77;;
16512;SDS011;8369;48.030;11.598;2023-02-01T15:29:01;6.40;;;3.67;;
16512;SDS011;8369;48.030;11.598;2023-02-01T15:31:35;6.03;;;2.87;;
16512;SDS011;8369;48.030;11.598;2023-02-01T15:34:06;7.10;;;3.53;;
16512;SDS011;8369;48.030;11.598;2023-02-01T15:36:32;11.37;;;5.17;;
16512;SDS011;8369;48.030;11.598;2023-02-01T15:39:18;12.90;;;6.97;;
16512;SDS011;8369;48.030;11.598;2023-02-01T15:41:57;8.23;;;3.57;;
16512;SDS011;8369;48.030;11.598;2023-02-01T15:47:06;5.83;;;2.93;;
16512;SDS011;8369;48.030;11.598;2023-02-01T15:49:39;3.53;;;2.93;;
16512;SDS011;8369;48.030;11.598;2023-02-01T15:52:21;2.50;;;2.13;;
16512;SDS011;8369;48.030;11.598;2023-02-01T15:54:57;12.70;;;5.80;;
16512;SDS011;8369;48.030;11.598;2023-02-01T15:57:29;8.57;;;4.37;;
16512;SDS011;8369;48.030;11.598;2023-02-01T16:00:05;8.67;;;4.40;;
16512;SDS011;8369;48.030;11.598;2023-02-01T16:02:37;6.93;;;3.90;;
16512;SDS011;8369;48.030;11.598;2023-02-01T16:10:41;7.83;;;2.57;;
16512;SDS011;8369;48.030;11.598;2023-02-01T16:13:08;3.70;;;2.80;;
16512;SDS011;8369;48.030;11.598;2023-02-01T16:15:35;7.33;;;2.60;;
16512;SDS011;8369;48.030;11.598;2023-02-01T16:18:00;5.93;;;2.27;;
16512;SDS011;8369;48.030;11.598;2023-02-01T16:20:26;4.97;;;2.33;;
16512;SDS011;8369;48.030;11.598;2023-02-01T16:22:52;5.20;;;2.40;;
16512;SDS011;8369;48.030;11.598;2023-02-01T16:25:18;5.67;;;3.23;;
16512;SDS011;8369;48.030;11.598;2023-02-01T16:27:44;11.17;;;4.40;;
16512;SDS011;8369;48.030;11.598;2023-02-01T16:30:10;5.17;;;3.20;;
16512;SDS011;8369;48.030;11.598;2023-02-01T16:32:36;4.10;;;2.53;;
16512;SDS011;8369;48.030;11.598;2023-02-01T16:35:08;7.00;;;4.73;;
16512;SDS011;8369;48.030;11.598;2023-02-01T16:37:48;6.93;;;3.90;;
16512;SDS011;8369;48.030;11.598;2023-02-01T16:40:15;8.97;;;3.50;;
16512;SDS011;8369;48.030;11.598;2023-02-01T16:42:50;5.70;;;2.90;;
16512;SDS011;8369;48.030;11.598;2023-02-01T16:45:16;6.53;;;2.40;;
16512;SDS011;8369;48.030;11.598;2023-02-01T16:47:45;5.07;;;2.77;;
16512;SDS011;8369;48.030;11.598;2023-02-01T16:50:16;5.73;;;3.13;;
16512;SDS011;8369;48.030;11.598;2023-02-01T16:52:45;6.40;;;3.30;;
16512;SDS011;8369;48.030;11.598;2023-02-01T16:55:15;6.43;;;3.33;;
16512;SDS011;8369;48.030;11.598;2023-02-01T16:57:43;8.00;;;2.73;;
16512;SDS011;8369;48.030;11.598;2023-02-01T17:00:09;7.60;;;2.97;;
16512;SDS011;8369;48.030;11.598;2023-02-01T17:02:36;12.43;;;3.50;;
16512;SDS011;8369;48.030;11.598;2023-02-01T17:05:03;7.23;;;4.27;;
16512;SDS011;8369;48.030;11.598;2023-02-01T17:07:30;5.17;;;2.87;;
16512;SDS011;8369;48.030;11.598;2023-02-01T17:09:56;7.83;;;3.27;;
16512;SDS011;8369;48.030;11.598;2023-02-01T17:12:26;7.07;;;3.80;;
16512;SDS011;8369;48.030;11.598;2023-02-01T17:14:54;7.97;;;4.20;;
16512;SDS011;8369;48.030;11.598;2023-02-01T17:17:21;4.93;;;2.80;;
16512;SDS011;8369;48.030;11.598;2023-02-01T17:19:48;5.30;;;2.50;;
16512;SDS011;8369;48.030;11.598;2023-02-01T17:22:17;6.43;;;2.80;;
16512;SDS011;8369;48.030;11.598;2023-02-01T17:24:43;9.83;;;2.43;;
16512;SDS011;8369;48.030;11.598;2023-02-01T17:27:09;7.13;;;3.20;;
16512;SDS011;8369;48.030;11.598;2023-02-01T17:29:35;6.00;;;3.37;;
16512;SDS011;8369;48.030;11.598;2023-02-01T17:32:00;8.07;;;2.57;;